Welcome to the New NWS' Forecast!
Most changes are behind the scenes, but click here for differences you might notice.

Terminal Aerodrome Forecast (TAF)

Issued by National Weather Service (NWS)

                            
369 
FTUS42 KKEY 180950 AAA
TAFMTH
TAF AMD
KMTH 180950Z 1810/1906 09006KT P6SM VCSH SCT025
     FM181500 12008G16KT P6SM VCTS SCT025CB SCT050
     FM190200 09008KT P6SM VCSH SCT025=